createdAt,value
2022-12-20T00:01:42.633Z,101598.38
2022-12-20T00:04:10.775Z,101592.94
2022-12-20T00:06:37.167Z,101596.53
2022-12-20T00:09:04.839Z,101585.81
2022-12-20T00:11:31.250Z,101590.41
2022-12-20T00:13:57.837Z,101580.38
2022-12-20T00:16:28.447Z,101578.69
2022-12-20T00:18:56.811Z,101581.22
2022-12-20T00:21:23.305Z,101574.94
2022-12-20T00:23:50.947Z,101571.38
2022-12-20T00:26:18.892Z,101571.38
2022-12-20T00:28:45.597Z,101579.53
2022-12-20T00:31:13.545Z,101579.53
2022-12-20T00:33:40.441Z,101570.53
2022-12-20T00:36:07.330Z,101577.78
2022-12-20T00:38:34.290Z,101582.25
2022-12-20T00:41:03.809Z,101576.81
2022-12-20T00:43:30.717Z,101566.06
2022-12-20T00:45:57.143Z,101573.25
2022-12-20T00:48:23.585Z,101574.09
2022-12-20T00:50:50.129Z,101567.81
2022-12-20T00:53:21.119Z,101569.63
2022-12-20T00:55:51.048Z,101564.06
2022-12-20T00:58:17.502Z,101573.25
2022-12-20T01:00:43.999Z,101586.84
2022-12-20T01:03:10.553Z,101591.41
2022-12-20T01:05:37.060Z,101576.94
2022-12-20T01:08:03.845Z,101579.66
2022-12-20T01:10:30.280Z,101571.50
2022-12-20T01:12:56.683Z,101576.94
2022-12-20T01:15:23.218Z,101582.38
2022-12-20T01:17:50.007Z,101580.50
2022-12-20T01:20:16.974Z,101580.50
2022-12-20T01:22:47.447Z,101581.41
2022-12-20T01:25:14.326Z,101582.38
2022-12-20T01:27:40.734Z,101584.25
2022-12-20T01:30:07.467Z,101577.97
2022-12-20T01:32:33.919Z,101558.75
2022-12-20T01:35:00.325Z,101558.75
2022-12-20T01:37:26.712Z,101556.22
2022-12-20T01:39:53.090Z,101558.94
2022-12-20T01:42:19.584Z,101568.66
2022-12-20T01:44:46.173Z,101556.03
2022-12-20T01:47:13.345Z,101557.91
2022-12-20T01:49:44.281Z,101559.47
2022-12-20T01:52:21.999Z,101561.16
2022-12-20T01:54:51.555Z,101553.88
2022-12-20T01:57:20.887Z,101558.44
2022-12-20T01:59:48.329Z,101549.28
2022-12-20T02:02:14.875Z,101554.59
2022-12-20T02:04:41.506Z,101563.63
2022-12-20T02:07:08.716Z,101558.00
2022-12-20T02:09:36.995Z,101562.59
2022-12-20T02:12:11.639Z,101560.72
2022-12-20T02:14:51.503Z,101563.31
2022-12-20T02:17:30.058Z,101549.69
2022-12-20T02:20:16.278Z,101545.09
2022-12-20T02:22:48.435Z,101548.69
2022-12-20T02:25:26.669Z,101547.47
2022-12-20T02:28:00.147Z,101552.94
2022-12-20T02:30:33.978Z,101549.22
2022-12-20T02:33:04.777Z,101541.06
2022-12-20T02:35:32.613Z,101540.03
2022-12-20T02:38:01.971Z,101553.63
2022-12-20T02:40:39.479Z,101540.88
2022-12-20T02:43:30.468Z,101539.88
2022-12-20T02:45:58.275Z,101528.97
2022-12-20T02:48:26.385Z,101534.41
2022-12-20T02:50:54.179Z,101538.88
2022-12-20T02:53:22.115Z,101532.56
2022-12-20T02:55:59.413Z,101529.84
2022-12-20T02:58:43.486Z,101536.28
2022-12-20T03:01:14.249Z,101533.56
2022-12-20T03:03:40.859Z,101524.56
2022-12-20T03:06:07.498Z,101512.00
2022-12-20T03:08:33.893Z,101509.09
2022-12-20T03:11:00.350Z,101504.69
2022-12-20T03:13:26.799Z,101508.41
2022-12-20T03:15:53.186Z,101502.13
2022-12-20T03:18:19.576Z,101493.09
2022-12-20T03:20:46.014Z,101491.25
2022-12-20T03:23:12.451Z,101488.69
2022-12-20T03:25:38.863Z,101490.53
2022-12-20T03:28:05.279Z,101496.84
2022-12-20T03:30:31.871Z,101495.13
2022-12-20T03:32:58.362Z,101498.72
2022-12-20T03:35:24.792Z,101494.13
2022-12-20T03:37:51.216Z,101493.09
2022-12-20T03:40:17.669Z,101494.13
2022-12-20T03:42:44.110Z,101503.31
2022-12-20T03:45:11.005Z,101503.31
2022-12-20T03:47:37.423Z,101498.72
2022-12-20T03:50:04.425Z,101501.44
2022-12-20T03:52:30.807Z,101486.81
2022-12-20T03:54:57.331Z,101498.72
2022-12-20T03:57:23.768Z,101514.19
2022-12-20T03:59:50.296Z,101503.31
2022-12-20T04:02:16.870Z,101507.88
2022-12-20T04:04:43.399Z,101510.59
2022-12-20T04:07:09.834Z,101516.91
2022-12-20T04:09:36.250Z,101509.59
2022-12-20T04:12:02.600Z,101512.13
2022-12-20T04:14:29.015Z,101516.72
2022-12-20T04:16:55.452Z,101510.44
2022-12-20T04:19:21.887Z,101518.75
2022-12-20T04:21:48.284Z,101515.03
2022-12-20T04:24:14.703Z,101516.03
2022-12-20T04:26:41.508Z,101513.31
2022-12-20T04:29:07.973Z,101507.88
2022-12-20T04:31:34.472Z,101514.19
2022-12-20T04:34:00.937Z,101517.75
2022-12-20T04:36:27.338Z,101492.41
2022-12-20T04:38:54.149Z,101496.00
2022-12-20T04:41:23.585Z,101493.28
2022-12-20T04:43:53.168Z,101493.28
2022-12-20T04:46:19.678Z,101495.13
2022-12-20T04:48:57.058Z,101482.56
2022-12-20T04:51:24.642Z,101498.88
2022-12-20T04:53:51.065Z,101498.03
2022-12-20T04:56:22.219Z,101481.72
2022-12-20T04:58:49.803Z,101479.66
2022-12-20T05:01:16.255Z,101460.81
2022-12-20T05:03:43.031Z,101477.97
2022-12-20T05:06:10.235Z,101486.97
2022-12-20T05:08:36.761Z,101472.53
2022-12-20T05:11:03.473Z,101459.78
2022-12-20T05:13:29.907Z,101462.50
2022-12-20T05:15:57.170Z,101462.69
2022-12-20T05:18:24.146Z,101473.38
2022-12-20T05:21:10.750Z,101470.66
2022-12-20T05:23:56.244Z,101470.84
2022-12-20T05:26:24.598Z,101468.97
2022-12-20T05:28:52.731Z,101469.97
2022-12-20T05:31:19.188Z,101471.84
2022-12-20T05:33:45.791Z,101475.41
2022-12-20T05:36:12.263Z,101485.44
2022-12-20T05:38:38.667Z,101481.72
2022-12-20T05:41:06.685Z,101469.97
2022-12-20T05:43:33.395Z,101472.53
2022-12-20T05:46:00.327Z,101467.09
2022-12-20T05:48:26.762Z,101470.66
2022-12-20T05:50:53.173Z,101471.69
2022-12-20T05:53:19.619Z,101462.50
2022-12-20T05:55:47.860Z,101445.84
2022-12-20T05:58:14.819Z,101462.50
2022-12-20T06:00:41.947Z,101458.94
2022-12-20T06:03:09.825Z,101466.06
2022-12-20T06:05:36.812Z,101473.38
2022-12-20T06:08:03.919Z,101469.81
2022-12-20T06:10:30.404Z,101462.69
2022-12-20T06:12:56.871Z,101464.38
2022-12-20T06:15:23.291Z,101475.25
2022-12-20T06:17:49.672Z,101487.16
2022-12-20T06:20:16.133Z,101482.56
2022-12-20T06:22:42.570Z,101479.84
2022-12-20T06:25:09.488Z,101472.53
2022-12-20T06:27:36.656Z,101467.09
2022-12-20T06:30:04.414Z,101460.81
2022-12-20T06:32:30.876Z,101459.09
2022-12-20T06:34:57.399Z,101481.53
2022-12-20T06:37:23.814Z,101496.16
2022-12-20T06:39:50.245Z,101483.41
2022-12-20T06:42:16.640Z,101482.56
2022-12-20T06:44:44.703Z,101499.72
2022-12-20T06:47:11.167Z,101506.00
2022-12-20T06:49:37.644Z,101510.59
2022-12-20T06:52:04.458Z,101503.31
2022-12-20T06:54:31.015Z,101494.13
2022-12-20T06:56:57.422Z,101487.84
2022-12-20T06:59:23.829Z,101494.13
2022-12-20T07:01:52.586Z,101493.28
2022-12-20T07:04:19.679Z,101505.84
2022-12-20T07:06:46.120Z,101514.84
2022-12-20T07:09:12.561Z,101502.13
2022-12-20T07:11:38.955Z,101499.56
2022-12-20T07:14:05.397Z,101496.84
2022-12-20T07:16:32.445Z,101493.09
2022-12-20T07:18:58.956Z,101503.13
2022-12-20T07:21:25.502Z,101499.41
2022-12-20T07:23:52.629Z,101484.94
2022-12-20T07:26:19.075Z,101498.38
2022-12-20T07:28:45.976Z,101495.81
2022-12-20T07:31:12.433Z,101497.69
2022-12-20T07:33:38.987Z,101498.53
2022-12-20T07:36:11.030Z,101502.28
2022-12-20T07:38:37.459Z,101509.41
2022-12-20T07:41:08.180Z,101514.84
2022-12-20T07:43:34.651Z,101519.44
2022-12-20T07:46:01.307Z,101512.13
2022-12-20T07:48:27.794Z,101524.03
2022-12-20T07:50:56.246Z,101512.31
2022-12-20T07:53:24.099Z,101520.28
2022-12-20T07:55:50.573Z,101520.28
2022-12-20T07:58:18.901Z,101514.00
2022-12-20T08:00:45.675Z,101520.28
2022-12-20T08:03:15.832Z,101530.31
2022-12-20T08:05:44.397Z,101524.03
2022-12-20T08:08:10.890Z,101519.44
2022-12-20T08:10:38.626Z,101515.88
2022-12-20T08:13:06.378Z,101510.28
2022-12-20T08:15:34.122Z,101518.44
2022-12-20T08:18:00.646Z,101507.56
2022-12-20T08:20:27.178Z,101510.28
2022-12-20T08:22:53.630Z,101507.56
2022-12-20T08:25:21.584Z,101513.88
2022-12-20T08:27:47.956Z,101507.56
2022-12-20T08:30:14.519Z,101506.69
2022-12-20T08:32:40.967Z,101510.13
2022-12-20T08:35:07.671Z,101504.69
2022-12-20T08:37:34.219Z,101498.38
2022-12-20T08:40:00.946Z,101503.84
2022-12-20T08:42:28.189Z,101510.13
2022-12-20T08:44:55.502Z,101506.56
2022-12-20T08:47:21.945Z,101512.00
2022-12-20T08:49:48.413Z,101514.72
2022-12-20T08:52:14.947Z,101514.72
2022-12-20T08:54:41.358Z,101504.69
2022-12-20T08:57:08.203Z,101515.56
2022-12-20T08:59:34.596Z,101505.53
2022-12-20T09:02:01.148Z,101499.25
2022-12-20T09:04:27.595Z,101499.25
2022-12-20T09:06:53.930Z,101499.25
2022-12-20T09:09:20.371Z,101496.53
2022-12-20T09:11:46.868Z,101497.53
2022-12-20T09:14:13.273Z,101502.81
2022-12-20T09:16:39.686Z,101492.78
2022-12-20T09:19:06.800Z,101497.38
2022-12-20T09:21:33.519Z,101500.94
2022-12-20T09:24:00.177Z,101491.09
2022-12-20T09:26:26.711Z,101490.22
2022-12-20T09:28:53.838Z,101486.50
2022-12-20T09:31:21.629Z,101487.34
2022-12-20T09:33:48.315Z,101493.81
2022-12-20T09:36:15.878Z,101480.19
2022-12-20T09:38:42.322Z,101475.63
2022-12-20T09:41:20.675Z,101472.88
2022-12-20T09:43:49.572Z,101482.75
2022-12-20T09:46:16.392Z,101471.03
2022-12-20T09:48:43.239Z,101465.75
2022-12-20T09:51:15.614Z,101465.44
2022-12-20T09:53:41.973Z,101456.41
2022-12-20T09:56:26.648Z,101465.44
2022-12-20T09:58:55.816Z,101470.00
2022-12-20T10:01:25.720Z,101465.59
2022-12-20T10:03:54.175Z,101466.44
2022-12-20T10:06:39.612Z,101463.72
2022-12-20T10:09:12.209Z,101469.84
2022-12-20T10:11:57.526Z,101452.81
2022-12-20T10:14:27.095Z,101449.13
2022-12-20T10:16:57.064Z,101448.25
2022-12-20T10:19:23.387Z,101454.38
2022-12-20T10:22:10.912Z,101461.69
2022-12-20T10:24:38.857Z,101454.38
2022-12-20T10:27:25.521Z,101449.78
2022-12-20T10:29:51.953Z,101445.19
2022-12-20T10:32:20.289Z,101455.22
2022-12-20T10:34:59.764Z,101448.94
2022-12-20T10:37:26.352Z,101437.22
2022-12-20T10:39:52.944Z,101429.72
2022-12-20T10:42:24.674Z,101423.44
2022-12-20T10:44:51.256Z,101429.72
2022-12-20T10:47:35.921Z,101421.56
2022-12-20T10:50:10.388Z,101409.84
2022-12-20T10:52:37.722Z,101412.56
2022-12-20T10:55:22.788Z,101404.41
2022-12-20T10:57:49.167Z,101393.53
2022-12-20T11:00:28.111Z,101386.38
2022-12-20T11:03:10.417Z,101387.25
2022-12-20T11:05:37.274Z,101392.69
2022-12-20T11:11:22.028Z,101354.59
2022-12-20T11:13:49.067Z,101352.06
2022-12-20T11:16:24.801Z,101356.47
2022-12-20T11:19:10.150Z,101349.16
2022-12-20T11:21:36.578Z,101347.28
2022-12-20T11:24:03.314Z,101344.56
2022-12-20T11:26:42.364Z,101351.88
2022-12-20T11:29:15.419Z,101345.59
2022-12-20T11:31:42.771Z,101338.09
2022-12-20T11:34:09.257Z,101330.97
2022-12-20T11:36:38.358Z,101317.38
2022-12-20T11:39:11.042Z,101328.25
2022-12-20T11:41:45.294Z,101314.66
2022-12-20T11:44:27.203Z,101315.50
2022-12-20T11:47:00.355Z,101315.50
2022-12-20T11:49:29.914Z,101322.81
2022-12-20T11:52:09.937Z,101311.78
2022-12-20T11:54:43.133Z,101315.34
2022-12-20T11:57:48.113Z,101308.88
2022-12-20T12:00:18.838Z,101308.03
2022-12-20T12:02:58.016Z,101296.31
2022-12-20T12:05:51.280Z,101301.56
2022-12-20T12:08:19.681Z,101287.13
2022-12-20T12:10:54.548Z,101300.91
2022-12-20T12:13:26.394Z,101300.72
2022-12-20T12:16:11.262Z,101289.84
2022-12-20T12:18:38.926Z,101293.59
2022-12-20T12:21:09.422Z,101296.31
2022-12-20T12:23:47.713Z,101288.16
2022-12-20T12:26:22.049Z,101291.72
2022-12-20T12:28:53.310Z,101285.44
2022-12-20T12:31:23.978Z,101304.28
2022-12-20T12:33:55.052Z,101302.59
2022-12-20T12:36:21.396Z,101291.72
2022-12-20T12:38:50.836Z,101279.16
2022-12-20T12:41:35.611Z,101284.41
2022-12-20T12:44:20.370Z,101275.41
2022-12-20T12:46:50.181Z,101269.97
2022-12-20T12:49:18.202Z,101256.38
2022-12-20T12:51:50.809Z,101259.22
2022-12-20T12:54:23.214Z,101246.50
2022-12-20T12:56:50.601Z,101242.91
2022-12-20T12:59:39.910Z,101239.19
2022-12-20T13:02:15.818Z,101241.06
2022-12-20T13:04:54.575Z,101240.03
2022-12-20T13:07:31.057Z,101233.75
2022-12-20T13:09:57.899Z,101225.41
2022-12-20T13:12:36.603Z,101225.59
2022-12-20T13:15:21.386Z,101227.28
2022-12-20T13:17:54.961Z,101220.16
2022-12-20T13:20:23.215Z,101219.31
2022-12-20T13:23:08.077Z,101224.56
2022-12-20T13:25:38.900Z,101221.16
2022-12-20T13:28:23.818Z,101223.72
2022-12-20T13:30:53.356Z,101225.59
2022-12-20T13:33:24.833Z,101230.00
2022-12-20T13:35:59.498Z,101231.88
2022-12-20T13:38:38.309Z,101216.41
2022-12-20T13:41:23.061Z,101219.31
2022-12-20T13:43:50.960Z,101210.97
2022-12-20T13:46:32.452Z,101214.53
2022-12-20T13:49:08.890Z,101213.50
2022-12-20T13:51:35.631Z,101224.25
2022-12-20T13:54:03.607Z,101235.28
2022-12-20T13:56:30.072Z,101238.00
2022-12-20T13:58:57.721Z,101227.94
2022-12-20T14:01:25.273Z,101236.13
2022-12-20T14:03:52.484Z,101232.53
2022-12-20T14:06:26.278Z,101229.81
2022-12-20T14:08:53.480Z,101223.53
2022-12-20T14:11:24.258Z,101234.25
2022-12-20T14:13:56.706Z,101225.22
2022-12-20T14:16:25.697Z,101227.94
2022-12-20T14:18:58.314Z,101223.53
2022-12-20T14:21:25.108Z,101207.22
2022-12-20T14:23:52.767Z,101210.78
2022-12-20T14:26:24.242Z,101212.66
2022-12-20T14:28:51.708Z,101211.81
2022-12-20T14:31:33.548Z,101214.53
2022-12-20T14:34:10.559Z,101221.66
2022-12-20T14:36:44.568Z,101217.25
2022-12-20T14:39:34.115Z,101200.94
2022-12-20T14:42:12.660Z,101187.34
2022-12-20T14:44:39.664Z,101179.19
2022-12-20T14:47:24.579Z,101181.91
2022-12-20T14:49:54.564Z,101185.66
2022-12-20T14:52:22.082Z,101180.03
2022-12-20T14:57:34.909Z,101183.78
2022-12-20T15:00:21.702Z,101192.78
2022-12-20T15:02:53.074Z,101173.75
2022-12-20T15:05:38.877Z,101160.97
2022-12-20T15:08:20.797Z,101175.63
2022-12-20T15:11:12.205Z,101178.53
2022-12-20T15:13:39.727Z,101174.91
2022-12-20T15:16:13.900Z,101174.78
2022-12-20T15:18:40.806Z,101182.94
2022-12-20T15:21:13.135Z,101183.78
2022-12-20T15:23:47.298Z,101177.31
2022-12-20T15:26:17.372Z,101181.91
2022-12-20T15:28:44.119Z,101180.88
2022-12-20T15:31:14.685Z,101167.28
2022-12-20T15:33:41.850Z,101174.59
2022-12-20T15:36:13.668Z,101170.00
2022-12-20T15:39:10.647Z,101168.97
2022-12-20T15:41:28.079Z,101175.44
2022-12-20T15:43:57.999Z,101164.41
2022-12-20T15:46:24.488Z,101163.72
2022-12-20T15:48:50.910Z,101157.41
2022-12-20T15:51:23.883Z,101162.69
2022-12-20T15:53:50.275Z,101159.97
2022-12-20T15:56:18.840Z,101141.09
2022-12-20T15:58:45.435Z,101135.66
2022-12-20T16:01:14.078Z,101132.94
2022-12-20T16:03:40.755Z,101138.38
2022-12-20T16:06:08.989Z,101150.09
2022-12-20T16:08:35.528Z,101152.81
2022-12-20T16:11:01.991Z,101143.81
2022-12-20T16:13:28.392Z,101141.94
2022-12-20T16:15:54.872Z,101140.06
2022-12-20T16:18:21.432Z,101141.94
2022-12-20T16:20:48.034Z,101134.63
2022-12-20T16:23:18.564Z,101124.78
2022-12-20T16:25:45.285Z,101122.91
2022-12-20T16:28:12.060Z,101126.47
2022-12-20T16:30:38.781Z,101129.19
2022-12-20T16:33:05.354Z,101130.88
2022-12-20T16:35:33.148Z,101128.34
2022-12-20T16:38:00.438Z,101116.63
2022-12-20T16:40:28.238Z,101111.00
2022-12-20T16:42:55.079Z,101111.19
2022-12-20T16:45:23.391Z,101120.38
2022-12-20T16:47:50.199Z,101114.94
2022-12-20T16:50:17.089Z,101116.63
2022-12-20T16:52:43.481Z,101113.06
2022-12-20T16:55:13.478Z,101120.38
2022-12-20T16:57:39.943Z,101107.63
2022-12-20T17:00:07.153Z,101100.50
2022-12-20T17:02:34.364Z,101099.47
2022-12-20T17:05:01.024Z,101104.06
2022-12-20T17:07:27.569Z,101111.38
2022-12-20T17:10:12.178Z,101114.94
2022-12-20T17:12:38.619Z,101112.22
2022-12-20T17:15:05.230Z,101115.78
2022-12-20T17:17:31.668Z,101114.94
2022-12-20T17:19:58.862Z,101118.69
2022-12-20T17:25:32.448Z,101133.97
2022-12-20T17:27:58.914Z,101127.69
2022-12-20T17:30:25.688Z,101112.22
2022-12-20T17:32:53.491Z,101125.81
2022-12-20T17:35:21.691Z,101114.09
2022-12-20T17:37:48.566Z,101113.06
2022-12-20T17:40:15.786Z,101109.31
2022-12-20T17:42:42.529Z,101101.34
2022-12-20T17:45:20.507Z,101098.63
2022-12-20T17:47:46.920Z,101101.16
2022-12-20T17:50:15.630Z,101109.31
2022-12-20T17:52:42.054Z,101112.03
2022-12-20T17:55:14.479Z,101117.47
2022-12-20T17:57:40.947Z,101134.63
2022-12-20T18:00:07.669Z,101139.03
2022-12-20T18:02:34.109Z,101133.78
2022-12-20T18:05:00.648Z,101132.94
2022-12-20T18:07:27.085Z,101141.94
2022-12-20T18:09:53.498Z,101136.50
2022-12-20T18:12:20.038Z,101130.22
2022-12-20T18:14:48.237Z,101120.19
2022-12-20T18:17:14.711Z,101107.44
2022-12-20T18:19:41.267Z,101103.22
2022-12-20T18:22:07.747Z,101106.59
2022-12-20T18:24:34.179Z,101112.88
2022-12-20T18:27:00.620Z,101114.56
2022-12-20T18:29:27.024Z,101099.28
2022-12-20T18:31:53.523Z,101110.16
2022-12-20T18:34:19.987Z,101104.72
2022-12-20T18:36:46.366Z,101108.47
2022-12-20T18:39:13.241Z,101106.59
2022-12-20T18:41:42.138Z,101098.44
2022-12-20T18:44:09.679Z,101091.31
2022-12-20T18:46:36.266Z,101101.16
2022-12-20T18:49:03.168Z,101090.28
2022-12-20T18:51:36.585Z,101102.84
2022-12-20T18:54:03.908Z,101098.44
2022-12-20T18:56:31.663Z,101098.44
2022-12-20T18:59:04.516Z,101092.16
2022-12-20T19:01:35.154Z,101088.41
2022-12-20T19:04:03.363Z,101082.97
2022-12-20T19:06:29.919Z,101082.97
2022-12-20T19:08:56.355Z,101089.25
2022-12-20T19:11:23.466Z,101090.97
2022-12-20T19:13:50.710Z,101090.97
2022-12-20T19:16:19.061Z,101100.13
2022-12-20T19:18:46.207Z,101092.81
2022-12-20T19:21:14.773Z,101086.53
2022-12-20T19:23:42.891Z,101084.66
2022-12-20T19:26:11.783Z,101084.66
2022-12-20T19:28:38.893Z,101082.81
2022-12-20T19:31:06.695Z,101076.50
2022-12-20T19:33:35.818Z,101081.09
2022-12-20T19:36:07.817Z,101079.06
2022-12-20T19:38:34.241Z,101085.34
2022-12-20T19:41:01.741Z,101081.78
2022-12-20T19:43:28.173Z,101082.81
2022-12-20T19:45:56.694Z,101073.75
2022-12-20T19:48:23.514Z,101079.22
2022-12-20T19:50:50.391Z,101076.66
2022-12-20T19:53:16.808Z,101077.38
2022-12-20T19:55:51.474Z,101080.09
2022-12-20T19:58:17.843Z,101080.09
2022-12-20T20:00:47.095Z,101068.19
2022-12-20T20:03:13.750Z,101070.91
2022-12-20T20:05:41.367Z,101079.06
2022-12-20T20:08:08.097Z,101071.94
2022-12-20T20:10:34.597Z,101066.47
2022-12-20T20:13:01.055Z,101070.91
2022-12-20T20:15:27.869Z,101072.78
2022-12-20T20:17:55.097Z,101082.81
2022-12-20T20:20:22.406Z,101082.97
2022-12-20T20:22:48.786Z,101079.22
2022-12-20T20:25:15.185Z,101081.94
2022-12-20T20:27:41.663Z,101086.53
2022-12-20T20:30:11.165Z,101077.38
2022-12-20T20:32:37.608Z,101070.91
2022-12-20T20:35:04.199Z,101082.81
2022-12-20T20:37:30.545Z,101076.34
2022-12-20T20:39:56.978Z,101074.66
2022-12-20T20:42:23.798Z,101071.94
2022-12-20T20:44:50.324Z,101068.31
2022-12-20T20:47:17.422Z,101069.22
2022-12-20T20:49:43.908Z,101055.59
2022-12-20T20:52:10.494Z,101070.72
2022-12-20T20:54:36.925Z,101062.75
2022-12-20T20:57:03.395Z,101058.97
2022-12-20T20:59:29.833Z,101058.13
2022-12-20T21:01:56.299Z,101068.84
2022-12-20T21:04:22.813Z,101064.44
2022-12-20T21:06:49.178Z,101060.00
2022-12-20T21:09:15.614Z,101059.81
2022-12-20T21:11:42.186Z,101058.13
2022-12-20T21:14:08.724Z,101060.84
2022-12-20T21:16:35.239Z,101056.25
2022-12-20T21:19:01.971Z,101046.41
2022-12-20T21:21:28.898Z,101050.81
2022-12-20T21:23:55.680Z,101046.22
2022-12-20T21:26:22.723Z,101046.22
2022-12-20T21:28:49.129Z,101053.53
2022-12-20T21:31:16.945Z,101045.38
2022-12-20T21:33:45.770Z,101047.25
2022-12-20T21:36:13.970Z,101043.69
2022-12-20T21:38:40.793Z,101049.97
2022-12-20T21:41:08.995Z,101056.25
2022-12-20T21:43:35.509Z,101044.53
2022-12-20T21:46:02.027Z,101036.56
2022-12-20T21:48:29.757Z,101048.09
2022-12-20T21:51:03.943Z,101047.25
2022-12-20T21:53:30.909Z,101051.84
2022-12-20T21:55:57.976Z,101041.13
2022-12-20T21:58:25.038Z,101042.84
2022-12-20T22:00:55.599Z,101042.66
2022-12-20T22:03:23.030Z,101047.25
2022-12-20T22:05:50.705Z,101032.63
2022-12-20T22:08:17.583Z,101047.25
2022-12-20T22:10:44.337Z,101033.66
2022-12-20T22:13:11.242Z,101035.53
2022-12-20T22:15:38.239Z,101038.06
2022-12-20T22:18:08.189Z,101031.78
2022-12-20T22:20:35.227Z,101038.06
2022-12-20T22:23:01.777Z,101037.22
2022-12-20T22:25:28.196Z,101037.22
2022-12-20T22:27:54.673Z,101036.38
2022-12-20T22:30:21.067Z,101033.84
2022-12-20T22:32:48.354Z,101033.66
2022-12-20T22:35:22.214Z,101031.13
2022-12-20T22:37:49.042Z,101032.63
2022-12-20T22:40:15.531Z,101032.81
2022-12-20T22:42:41.943Z,101024.47
2022-12-20T22:45:08.621Z,101020.06
2022-12-20T22:47:35.171Z,101015.47
2022-12-20T22:50:01.556Z,101020.06
2022-12-20T22:52:28.017Z,101019.03
2022-12-20T22:54:54.377Z,101019.88
2022-12-20T22:57:20.795Z,101023.63
2022-12-20T22:59:47.243Z,101023.63
2022-12-20T23:02:13.811Z,101010.03
2022-12-20T23:04:40.280Z,101004.59
2022-12-20T23:07:09.079Z,101008.16
2022-12-20T23:09:35.683Z,100998.13
2022-12-20T23:12:20.896Z,101005.44
2022-12-20T23:15:05.928Z,100997.28
2022-12-20T23:17:32.575Z,101001.88
2022-12-20T23:20:17.723Z,100992.88
2022-12-20T23:22:45.177Z,100998.31
2022-12-20T23:25:16.187Z,101002.91
2022-12-20T23:27:43.174Z,101011.06
2022-12-20T23:30:11.191Z,101011.91
2022-12-20T23:32:37.645Z,100997.28
2022-12-20T23:35:10.085Z,100997.28
2022-12-20T23:37:38.705Z,100985.34
2022-12-20T23:40:05.752Z,100996.25
2022-12-20T23:42:32.148Z,101007.31
2022-12-20T23:44:58.503Z,101001.69
2022-12-20T23:47:24.927Z,101004.59
2022-12-20T23:49:51.680Z,100994.56
2022-12-20T23:52:18.281Z,100993.72
2022-12-20T23:54:44.723Z,100997.28
2022-12-20T23:57:12.378Z,100998.13
2022-12-20T23:59:38.868Z,100986.59
